sensor_id;sensor_type;location;lat;lon;timestamp;pressure;altitude;pressure_sealevel;temperature;humidity
51239;BME280;38154;47.548;18.828;2022-07-21T00:02:10;98968.97;;;21.87;44.00
51239;BME280;38154;47.548;18.828;2022-07-21T00:04:36;98973.69;;;22.21;42.86
51239;BME280;38154;47.548;18.828;2022-07-21T00:07:02;98974.22;;;22.71;41.40
51239;BME280;38154;47.548;18.828;2022-07-21T00:09:28;98973.72;;;22.82;42.13
51239;BME280;38154;47.548;18.828;2022-07-21T00:11:54;98970.44;;;22.95;41.50
51239;BME280;38154;47.548;18.828;2022-07-21T00:14:20;98977.22;;;23.22;40.95
51239;BME280;38154;47.548;18.828;2022-07-21T00:16:46;98975.50;;;23.40;40.18
51239;BME280;38154;47.548;18.828;2022-07-21T00:19:11;98977.13;;;23.42;40.58
51239;BME280;38154;47.548;18.828;2022-07-21T00:21:38;98982.16;;;23.48;40.54
51239;BME280;38154;47.548;18.828;2022-07-21T00:24:04;98977.97;;;23.43;40.68
51239;BME280;38154;47.548;18.828;2022-07-21T00:26:30;98983.66;;;23.54;40.41
51239;BME280;38154;47.548;18.828;2022-07-21T00:28:56;98980.75;;;23.41;41.02
51239;BME280;38154;47.548;18.828;2022-07-21T00:31:22;98987.03;;;23.58;40.18
51239;BME280;38154;47.548;18.828;2022-07-21T00:33:48;98984.75;;;23.50;40.52
51239;BME280;38154;47.548;18.828;2022-07-21T00:36:17;98989.38;;;23.46;41.21
51239;BME280;38154;47.548;18.828;2022-07-21T00:38:43;98983.53;;;23.75;39.59
51239;BME280;38154;47.548;18.828;2022-07-21T00:41:09;98984.19;;;23.80;40.32
51239;BME280;38154;47.548;18.828;2022-07-21T00:43:35;98977.25;;;23.95;39.72
51239;BME280;38154;47.548;18.828;2022-07-21T00:46:01;98972.03;;;23.74;40.24
51239;BME280;38154;47.548;18.828;2022-07-21T00:48:27;98977.34;;;23.74;40.25
51239;BME280;38154;47.548;18.828;2022-07-21T00:50:53;98976.62;;;23.53;40.92
51239;BME280;38154;47.548;18.828;2022-07-21T00:53:19;98976.56;;;23.55;41.05
51239;BME280;38154;47.548;18.828;2022-07-21T00:55:45;98970.09;;;23.41;41.55
51239;BME280;38154;47.548;18.828;2022-07-21T00:58:12;98966.69;;;23.38;41.55
51239;BME280;38154;47.548;18.828;2022-07-21T01:00:39;98966.56;;;23.41;41.41
51239;BME280;38154;47.548;18.828;2022-07-21T01:03:05;98965.22;;;23.32;41.56
51239;BME280;38154;47.548;18.828;2022-07-21T01:05:31;98967.31;;;23.25;41.89
51239;BME280;38154;47.548;18.828;2022-07-21T01:07:58;98973.78;;;23.20;42.05
51239;BME280;38154;47.548;18.828;2022-07-21T01:10:29;98975.16;;;23.09;42.35
51239;BME280;38154;47.548;18.828;2022-07-21T01:12:56;98979.06;;;23.01;42.99
51239;BME280;38154;47.548;18.828;2022-07-21T01:15:23;98971.97;;;23.01;42.72
51239;BME280;38154;47.548;18.828;2022-07-21T01:17:49;98979.19;;;22.97;42.18
51239;BME280;38154;47.548;18.828;2022-07-21T01:20:18;98970.94;;;23.04;42.08
51239;BME280;38154;47.548;18.828;2022-07-21T01:22:47;98970.81;;;23.07;42.53
51239;BME280;38154;47.548;18.828;2022-07-21T01:25:14;98968.28;;;23.04;42.47
51239;BME280;38154;47.548;18.828;2022-07-21T01:27:41;98958.66;;;23.01;42.65
51239;BME280;38154;47.548;18.828;2022-07-21T01:30:08;98959.28;;;23.08;42.35
51239;BME280;38154;47.548;18.828;2022-07-21T01:32:36;98963.34;;;23.15;42.34
51239;BME280;38154;47.548;18.828;2022-07-21T01:35:05;98961.84;;;23.09;43.12
51239;BME280;38154;47.548;18.828;2022-07-21T01:37:31;98964.97;;;22.98;42.88
51239;BME280;38154;47.548;18.828;2022-07-21T01:39:59;98966.13;;;22.93;43.10
51239;BME280;38154;47.548;18.828;2022-07-21T01:42:43;98960.94;;;22.90;43.08
51239;BME280;38154;47.548;18.828;2022-07-21T01:45:09;98957.50;;;22.88;42.90
51239;BME280;38154;47.548;18.828;2022-07-21T01:47:35;98961.88;;;22.89;42.29
51239;BME280;38154;47.548;18.828;2022-07-21T01:50:02;98960.16;;;22.88;43.13
51239;BME280;38154;47.548;18.828;2022-07-21T01:52:28;98959.91;;;22.73;43.79
51239;BME280;38154;47.548;18.828;2022-07-21T01:54:54;98955.38;;;22.56;44.70
51239;BME280;38154;47.548;18.828;2022-07-21T01:57:20;98962.88;;;22.47;45.36
51239;BME280;38154;47.548;18.828;2022-07-21T01:59:46;98961.31;;;22.42;45.23
51239;BME280;38154;47.548;18.828;2022-07-21T02:02:12;98952.81;;;22.34;45.41
51239;BME280;38154;47.548;18.828;2022-07-21T02:04:38;98960.12;;;22.29;45.29
51239;BME280;38154;47.548;18.828;2022-07-21T02:07:04;98957.25;;;22.34;45.17
51239;BME280;38154;47.548;18.828;2022-07-21T02:09:30;98959.34;;;22.67;43.05
51239;BME280;38154;47.548;18.828;2022-07-21T02:11:55;98965.72;;;23.58;39.93
51239;BME280;38154;47.548;18.828;2022-07-21T02:14:21;98964.09;;;24.09;38.53
51239;BME280;38154;47.548;18.828;2022-07-21T02:16:47;98971.16;;;24.27;37.98
51239;BME280;38154;47.548;18.828;2022-07-21T02:19:13;98978.59;;;24.56;37.32
51239;BME280;38154;47.548;18.828;2022-07-21T02:21:39;98976.50;;;24.78;36.58
51239;BME280;38154;47.548;18.828;2022-07-21T02:24:05;98979.09;;;24.80;36.63
51239;BME280;38154;47.548;18.828;2022-07-21T02:26:32;98977.91;;;24.86;36.47
51239;BME280;38154;47.548;18.828;2022-07-21T02:28:58;98981.75;;;24.80;36.47
51239;BME280;38154;47.548;18.828;2022-07-21T02:31:23;98979.16;;;24.78;36.54
51239;BME280;38154;47.548;18.828;2022-07-21T02:33:49;98976.84;;;24.72;36.38
51239;BME280;38154;47.548;18.828;2022-07-21T02:36:15;98980.59;;;24.68;36.54
51239;BME280;38154;47.548;18.828;2022-07-21T02:38:41;98983.69;;;24.60;36.73
51239;BME280;38154;47.548;18.828;2022-07-21T02:41:07;98983.78;;;24.59;36.65
51239;BME280;38154;47.548;18.828;2022-07-21T02:43:33;98983.78;;;24.59;36.80
51239;BME280;38154;47.548;18.828;2022-07-21T02:45:59;98983.00;;;24.57;36.79
51239;BME280;38154;47.548;18.828;2022-07-21T02:48:24;98983.09;;;24.55;36.73
51239;BME280;38154;47.548;18.828;2022-07-21T02:50:50;98981.31;;;24.54;36.79
51239;BME280;38154;47.548;18.828;2022-07-21T02:53:18;98980.53;;;24.52;36.71
51239;BME280;38154;47.548;18.828;2022-07-21T02:55:48;98983.28;;;24.51;36.62
51239;BME280;38154;47.548;18.828;2022-07-21T02:58:17;98986.87;;;24.50;36.67
51239;BME280;38154;47.548;18.828;2022-07-21T03:00:48;98986.78;;;24.51;36.50
51239;BME280;38154;47.548;18.828;2022-07-21T03:03:14;98977.09;;;24.50;36.46
51239;BME280;38154;47.548;18.828;2022-07-21T03:05:40;98979.84;;;24.49;36.40
51239;BME280;38154;47.548;18.828;2022-07-21T03:08:08;98977.88;;;24.52;36.30
51239;BME280;38154;47.548;18.828;2022-07-21T03:10:35;98978.72;;;24.53;36.18
51239;BME280;38154;47.548;18.828;2022-07-21T03:13:01;98976.12;;;24.51;36.23
51239;BME280;38154;47.548;18.828;2022-07-21T03:15:28;98981.25;;;24.56;36.18
51239;BME280;38154;47.548;18.828;2022-07-21T03:17:53;98972.34;;;24.57;36.22
51239;BME280;38154;47.548;18.828;2022-07-21T03:20:22;98975.78;;;24.59;36.56
51239;BME280;38154;47.548;18.828;2022-07-21T03:22:48;98972.87;;;24.63;36.96
51239;BME280;38154;47.548;18.828;2022-07-21T03:25:14;98975.84;;;24.57;37.34
51239;BME280;38154;47.548;18.828;2022-07-21T03:27:40;98977.47;;;24.60;37.51
51239;BME280;38154;47.548;18.828;2022-07-21T03:30:07;98978.22;;;24.63;37.50
51239;BME280;38154;47.548;18.828;2022-07-21T03:32:34;98973.56;;;24.67;37.55
51239;BME280;38154;47.548;18.828;2022-07-21T03:35:01;98967.88;;;24.73;37.42
51239;BME280;38154;47.548;18.828;2022-07-21T03:37:27;98975.88;;;24.73;37.45
51239;BME280;38154;47.548;18.828;2022-07-21T03:39:53;98977.63;;;24.74;37.43
51239;BME280;38154;47.548;18.828;2022-07-21T03:42:19;98971.34;;;24.75;37.35
51239;BME280;38154;47.548;18.828;2022-07-21T03:44:45;98975.31;;;24.84;37.12
51239;BME280;38154;47.548;18.828;2022-07-21T03:47:11;98977.91;;;24.86;37.24
51239;BME280;38154;47.548;18.828;2022-07-21T03:49:37;98978.91;;;24.83;37.34
51239;BME280;38154;47.548;18.828;2022-07-21T03:52:03;98982.56;;;24.82;37.46
51239;BME280;38154;47.548;18.828;2022-07-21T03:54:28;98987.97;;;24.80;37.42
51239;BME280;38154;47.548;18.828;2022-07-21T03:56:54;98979.28;;;24.77;37.62
51239;BME280;38154;47.548;18.828;2022-07-21T03:59:20;98978.38;;;24.76;37.65
51239;BME280;38154;47.548;18.828;2022-07-21T04:01:46;98984.06;;;24.70;37.82
51239;BME280;38154;47.548;18.828;2022-07-21T04:04:12;98986.47;;;24.75;37.85
51239;BME280;38154;47.548;18.828;2022-07-21T04:06:38;98990.41;;;24.68;38.11
51239;BME280;38154;47.548;18.828;2022-07-21T04:09:04;98984.38;;;24.64;38.99
51239;BME280;38154;47.548;18.828;2022-07-21T04:11:29;98985.16;;;24.49;39.33
51239;BME280;38154;47.548;18.828;2022-07-21T04:13:58;98983.66;;;24.43;39.49
51239;BME280;38154;47.548;18.828;2022-07-21T04:16:24;98982.88;;;24.76;38.13
51239;BME280;38154;47.548;18.828;2022-07-21T04:18:50;98979.91;;;24.98;37.82
51239;BME280;38154;47.548;18.828;2022-07-21T04:21:16;98980.69;;;25.16;37.74
51239;BME280;38154;47.548;18.828;2022-07-21T04:23:42;98986.06;;;25.48;37.30
51239;BME280;38154;47.548;18.828;2022-07-21T04:26:07;98983.53;;;25.77;36.86
51239;BME280;38154;47.548;18.828;2022-07-21T04:28:33;98978.94;;;25.95;36.71
51239;BME280;38154;47.548;18.828;2022-07-21T04:30:59;98988.00;;;26.08;36.60
51239;BME280;38154;47.548;18.828;2022-07-21T04:33:25;98994.75;;;26.44;36.00
51239;BME280;38154;47.548;18.828;2022-07-21T04:35:51;98993.72;;;26.61;36.01
51239;BME280;38154;47.548;18.828;2022-07-21T04:38:17;98994.72;;;26.74;35.90
51239;BME280;38154;47.548;18.828;2022-07-21T04:40:44;98997.28;;;27.05;35.48
51239;BME280;38154;47.548;18.828;2022-07-21T04:43:09;98996.75;;;27.55;35.30
51239;BME280;38154;47.548;18.828;2022-07-21T04:45:35;98996.72;;;27.14;35.15
51239;BME280;38154;47.548;18.828;2022-07-21T04:48:01;98997.31;;;26.90;35.40
51239;BME280;38154;47.548;18.828;2022-07-21T04:50:27;98992.78;;;27.19;35.94
51239;BME280;38154;47.548;18.828;2022-07-21T04:52:54;98996.59;;;27.30;36.13
51239;BME280;38154;47.548;18.828;2022-07-21T04:55:21;98990.75;;;27.23;36.19
51239;BME280;38154;47.548;18.828;2022-07-21T04:57:49;99003.91;;;27.13;35.33
51239;BME280;38154;47.548;18.828;2022-07-21T05:00:21;99010.00;;;27.15;35.60
51239;BME280;38154;47.548;18.828;2022-07-21T05:02:48;99000.78;;;27.48;34.84
51239;BME280;38154;47.548;18.828;2022-07-21T05:05:14;99000.56;;;27.66;34.31
51239;BME280;38154;47.548;18.828;2022-07-21T05:07:40;99007.56;;;27.81;33.79
51239;BME280;38154;47.548;18.828;2022-07-21T05:10:09;98998.94;;;27.90;33.96
51239;BME280;38154;47.548;18.828;2022-07-21T05:12:35;99009.91;;;28.00;33.14
51239;BME280;38154;47.548;18.828;2022-07-21T05:15:01;99009.41;;;28.08;33.30
51239;BME280;38154;47.548;18.828;2022-07-21T05:17:27;99007.31;;;28.26;32.79
51239;BME280;38154;47.548;18.828;2022-07-21T05:19:53;99004.31;;;28.43;32.34
51239;BME280;38154;47.548;18.828;2022-07-21T05:22:19;99002.81;;;28.52;32.99
51239;BME280;38154;47.548;18.828;2022-07-21T05:24:45;99006.97;;;28.58;32.90
51239;BME280;38154;47.548;18.828;2022-07-21T05:27:11;99014.34;;;28.67;32.79
51239;BME280;38154;47.548;18.828;2022-07-21T05:29:36;99012.31;;;28.71;32.11
51239;BME280;38154;47.548;18.828;2022-07-21T05:32:02;99018.97;;;28.78;31.66
51239;BME280;38154;47.548;18.828;2022-07-21T05:34:28;99022.94;;;28.85;31.71
51239;BME280;38154;47.548;18.828;2022-07-21T05:36:54;99021.12;;;28.98;31.32
51239;BME280;38154;47.548;18.828;2022-07-21T05:39:20;99025.50;;;29.12;32.18
51239;BME280;38154;47.548;18.828;2022-07-21T05:41:46;99038.38;;;29.33;31.60
51239;BME280;38154;47.548;18.828;2022-07-21T05:44:12;99038.53;;;29.55;31.28
51239;BME280;38154;47.548;18.828;2022-07-21T05:46:38;99033.13;;;29.68;30.91
51239;BME280;38154;47.548;18.828;2022-07-21T05:49:04;99036.81;;;29.54;31.48
51239;BME280;38154;47.548;18.828;2022-07-21T05:51:30;99027.13;;;29.65;30.79
51239;BME280;38154;47.548;18.828;2022-07-21T05:53:56;99030.63;;;29.78;30.35
51239;BME280;38154;47.548;18.828;2022-07-21T05:56:22;99035.69;;;29.83;30.10
51239;BME280;38154;47.548;18.828;2022-07-21T05:58:47;99037.81;;;29.90;30.31
51239;BME280;38154;47.548;18.828;2022-07-21T06:01:13;99037.16;;;30.11;30.71
51239;BME280;38154;47.548;18.828;2022-07-21T06:03:42;99026.63;;;30.08;30.42
51239;BME280;38154;47.548;18.828;2022-07-21T06:06:09;99024.22;;;30.16;29.86
51239;BME280;38154;47.548;18.828;2022-07-21T06:08:40;99035.00;;;30.40;29.83
51239;BME280;38154;47.548;18.828;2022-07-21T06:11:08;99036.16;;;30.60;29.89
51239;BME280;38154;47.548;18.828;2022-07-21T06:13:34;99036.62;;;30.77;29.52
51239;BME280;38154;47.548;18.828;2022-07-21T06:16:00;99031.06;;;31.25;28.39
51239;BME280;38154;47.548;18.828;2022-07-21T06:18:26;99028.59;;;31.67;27.78
51239;BME280;38154;47.548;18.828;2022-07-21T06:20:52;99035.59;;;32.55;26.89
51239;BME280;38154;47.548;18.828;2022-07-21T06:23:17;99035.09;;;34.44;24.64
51239;BME280;38154;47.548;18.828;2022-07-21T06:25:43;99038.31;;;36.07;22.17
51239;BME280;38154;47.548;18.828;2022-07-21T06:28:09;99038.97;;;37.42;20.94
51239;BME280;38154;47.548;18.828;2022-07-21T06:30:35;99037.47;;;38.81;19.76
51239;BME280;38154;47.548;18.828;2022-07-21T06:33:02;99041.47;;;40.66;17.72
51239;BME280;38154;47.548;18.828;2022-07-21T06:35:27;99034.41;;;41.61;16.39
51239;BME280;38154;47.548;18.828;2022-07-21T06:37:53;99037.19;;;42.19;16.21
51239;BME280;38154;47.548;18.828;2022-07-21T06:40:19;99036.62;;;42.24;16.02
51239;BME280;38154;47.548;18.828;2022-07-21T06:42:45;99037.03;;;42.71;15.74
51239;BME280;38154;47.548;18.828;2022-07-21T06:45:11;99042.34;;;42.29;15.85
51239;BME280;38154;47.548;18.828;2022-07-21T06:47:37;99033.28;;;42.29;15.87
51239;BME280;38154;47.548;18.828;2022-07-21T06:50:03;99039.34;;;42.45;15.33
51239;BME280;38154;47.548;18.828;2022-07-21T06:52:30;99036.03;;;42.78;15.20
51239;BME280;38154;47.548;18.828;2022-07-21T06:54:56;99041.13;;;43.51;14.82
51239;BME280;38154;47.548;18.828;2022-07-21T06:57:22;99035.66;;;43.16;14.77
51239;BME280;38154;47.548;18.828;2022-07-21T06:59:48;99049.84;;;43.27;14.47
51239;BME280;38154;47.548;18.828;2022-07-21T07:02:14;99035.28;;;43.26;14.53
51239;BME280;38154;47.548;18.828;2022-07-21T07:04:40;99040.97;;;43.66;14.36
51239;BME280;38154;47.548;18.828;2022-07-21T07:07:07;99042.56;;;43.47;14.31
51239;BME280;38154;47.548;18.828;2022-07-21T07:09:32;99040.87;;;44.01;14.07
51239;BME280;38154;47.548;18.828;2022-07-21T07:11:58;99045.78;;;44.86;13.79
51239;BME280;38154;47.548;18.828;2022-07-21T07:14:35;99040.72;;;44.70;14.10
51239;BME280;38154;47.548;18.828;2022-07-21T07:17:02;99045.25;;;43.82;14.40
51239;BME280;38154;47.548;18.828;2022-07-21T07:19:29;99047.81;;;42.72;15.05
51239;BME280;38154;47.548;18.828;2022-07-21T07:21:55;99039.66;;;44.51;13.97
51239;BME280;38154;47.548;18.828;2022-07-21T07:24:21;99048.13;;;44.29;13.34
51239;BME280;38154;47.548;18.828;2022-07-21T07:26:47;99037.62;;;43.29;14.20
51239;BME280;38154;47.548;18.828;2022-07-21T07:29:14;99037.56;;;43.16;14.46
51239;BME280;38154;47.548;18.828;2022-07-21T07:31:40;99045.81;;;44.79;14.02
51239;BME280;38154;47.548;18.828;2022-07-21T07:34:06;99046.00;;;44.91;13.73
51239;BME280;38154;47.548;18.828;2022-07-21T07:36:32;99044.31;;;44.90;13.75
51239;BME280;38154;47.548;18.828;2022-07-21T07:38:58;99035.75;;;45.38;13.29
51239;BME280;38154;47.548;18.828;2022-07-21T07:41:26;99035.44;;;45.60;13.19
51239;BME280;38154;47.548;18.828;2022-07-21T07:43:53;99035.94;;;45.89;13.19
51239;BME280;38154;47.548;18.828;2022-07-21T07:46:19;99025.78;;;46.53;12.72
51239;BME280;38154;47.548;18.828;2022-07-21T07:48:45;99024.09;;;46.45;12.72
51239;BME280;38154;47.548;18.828;2022-07-21T07:51:13;99028.00;;;46.63;12.00
51239;BME280;38154;47.548;18.828;2022-07-21T07:53:40;99034.91;;;46.97;12.06
51239;BME280;38154;47.548;18.828;2022-07-21T07:56:07;99031.25;;;46.28;12.56
51239;BME280;38154;47.548;18.828;2022-07-21T07:58:34;99034.34;;;46.06;12.71
51239;BME280;38154;47.548;18.828;2022-07-21T08:01:00;99029.69;;;45.68;12.87
51239;BME280;38154;47.548;18.828;2022-07-21T08:03:27;99023.41;;;45.54;12.74
51239;BME280;38154;47.548;18.828;2022-07-21T08:05:54;99034.69;;;45.40;13.30
51239;BME280;38154;47.548;18.828;2022-07-21T08:08:21;99029.56;;;46.27;12.76
51239;BME280;38154;47.548;18.828;2022-07-21T08:10:47;99032.53;;;47.38;11.74
51239;BME280;38154;47.548;18.828;2022-07-21T08:13:17;99034.53;;;46.94;11.58
51239;BME280;38154;47.548;18.828;2022-07-21T08:15:45;99026.94;;;46.82;11.71
51239;BME280;38154;47.548;18.828;2022-07-21T08:18:11;99029.75;;;47.19;11.41
51239;BME280;38154;47.548;18.828;2022-07-21T08:20:38;99033.69;;;47.67;11.17
51239;BME280;38154;47.548;18.828;2022-07-21T08:23:05;99030.75;;;47.62;11.68
51239;BME280;38154;47.548;18.828;2022-07-21T08:25:31;99025.31;;;47.55;11.82
51239;BME280;38154;47.548;18.828;2022-07-21T08:27:57;99033.16;;;47.03;12.48
51239;BME280;38154;47.548;18.828;2022-07-21T08:30:23;99026.75;;;47.21;12.48
51239;BME280;38154;47.548;18.828;2022-07-21T08:32:49;99021.06;;;47.71;11.61
51239;BME280;38154;47.548;18.828;2022-07-21T08:35:15;99017.84;;;47.74;11.45
51239;BME280;38154;47.548;18.828;2022-07-21T08:37:40;99013.62;;;48.02;11.34
51239;BME280;38154;47.548;18.828;2022-07-21T08:40:10;99020.50;;;48.23;11.03
51239;BME280;38154;47.548;18.828;2022-07-21T08:42:36;99015.31;;;48.03;11.21
51239;BME280;38154;47.548;18.828;2022-07-21T08:45:03;99008.47;;;47.75;11.28
51239;BME280;38154;47.548;18.828;2022-07-21T08:47:30;99004.53;;;46.97;11.69
51239;BME280;38154;47.548;18.828;2022-07-21T08:49:56;99014.25;;;46.81;12.24
51239;BME280;38154;47.548;18.828;2022-07-21T08:52:23;99005.91;;;45.35;12.20
51239;BME280;38154;47.548;18.828;2022-07-21T08:54:49;99008.91;;;45.72;12.58
51239;BME280;38154;47.548;18.828;2022-07-21T08:57:15;99002.53;;;45.72;12.79
51239;BME280;38154;47.548;18.828;2022-07-21T08:59:41;99005.00;;;46.19;12.36
51239;BME280;38154;47.548;18.828;2022-07-21T09:02:25;99004.88;;;46.82;11.85
51239;BME280;38154;47.548;18.828;2022-07-21T09:04:52;99007.31;;;46.72;11.45
51239;BME280;38154;47.548;18.828;2022-07-21T09:07:18;99000.13;;;46.71;11.61
51239;BME280;38154;47.548;18.828;2022-07-21T09:10:14;98999.94;;;47.10;11.60
51239;BME280;38154;47.548;18.828;2022-07-21T09:12:51;98999.50;;;46.44;11.87
51239;BME280;38154;47.548;18.828;2022-07-21T09:15:19;98997.28;;;45.64;12.12
51239;BME280;38154;47.548;18.828;2022-07-21T09:17:46;98995.81;;;45.61;12.40
51239;BME280;38154;47.548;18.828;2022-07-21T09:20:28;98989.50;;;46.93;11.29
51239;BME280;38154;47.548;18.828;2022-07-21T09:23:08;98988.97;;;47.03;11.02
51239;BME280;38154;47.548;18.828;2022-07-21T09:25:57;98987.56;;;47.12;10.92
51239;BME280;38154;47.548;18.828;2022-07-21T09:28:26;98980.19;;;46.19;10.94
51239;BME280;38154;47.548;18.828;2022-07-21T09:31:07;98990.88;;;45.70;11.34
51239;BME280;38154;47.548;18.828;2022-07-21T09:36:06;98982.25;;;46.74;10.80
51239;BME280;38154;47.548;18.828;2022-07-21T09:38:44;98980.97;;;47.81;10.46
51239;BME280;38154;47.548;18.828;2022-07-21T09:41:20;98989.28;;;48.94;9.38
51239;BME280;38154;47.548;18.828;2022-07-21T09:43:48;98968.56;;;47.71;10.41
51239;BME280;38154;47.548;18.828;2022-07-21T09:46:20;98962.41;;;47.39;10.52
51239;BME280;38154;47.548;18.828;2022-07-21T09:48:50;98970.78;;;47.32;10.82
51239;BME280;38154;47.548;18.828;2022-07-21T09:51:20;98968.72;;;48.30;10.32
51239;BME280;38154;47.548;18.828;2022-07-21T09:53:54;98966.41;;;48.98;9.42
51239;BME280;38154;47.548;18.828;2022-07-21T09:56:20;98955.16;;;47.87;10.14
51239;BME280;38154;47.548;18.828;2022-07-21T09:58:48;98952.66;;;47.18;10.43
51239;BME280;38154;47.548;18.828;2022-07-21T10:01:14;98956.63;;;46.92;11.35
51239;BME280;38154;47.548;18.828;2022-07-21T10:03:43;98956.50;;;47.35;10.75
51239;BME280;38154;47.548;18.828;2022-07-21T10:06:11;98958.44;;;47.16;10.86
51239;BME280;38154;47.548;18.828;2022-07-21T10:08:37;98952.81;;;47.42;10.63
51239;BME280;38154;47.548;18.828;2022-07-21T10:11:05;98945.38;;;47.42;10.56
51239;BME280;38154;47.548;18.828;2022-07-21T10:13:31;98940.63;;;46.75;11.28
51239;BME280;38154;47.548;18.828;2022-07-21T10:16:04;98946.22;;;47.73;10.58
51239;BME280;38154;47.548;18.828;2022-07-21T10:24:10;98940.59;;;47.49;10.13
51239;BME280;38154;47.548;18.828;2022-07-21T10:29:59;98928.91;;;47.17;10.75
51239;BME280;38154;47.548;18.828;2022-07-21T10:32:37;98926.37;;;46.60;11.13
51239;BME280;38154;47.548;18.828;2022-07-21T10:35:26;98927.22;;;46.35;10.92
51239;BME280;38154;47.548;18.828;2022-07-21T10:37:54;98932.75;;;46.35;10.45
51239;BME280;38154;47.548;18.828;2022-07-21T10:45:38;98937.56;;;48.47;9.72
51239;BME280;38154;47.548;18.828;2022-07-21T10:48:07;98934.91;;;47.74;9.61
51239;BME280;38154;47.548;18.828;2022-07-21T10:50:38;98926.87;;;47.73;9.09
51239;BME280;38154;47.548;18.828;2022-07-21T10:53:12;98923.16;;;47.18;10.06
51239;BME280;38154;47.548;18.828;2022-07-21T10:55:45;98924.00;;;47.49;9.76
51239;BME280;38154;47.548;18.828;2022-07-21T10:58:16;98921.03;;;47.63;9.79
51239;BME280;38154;47.548;18.828;2022-07-21T11:00:52;98913.19;;;46.80;9.92
51239;BME280;38154;47.548;18.828;2022-07-21T11:03:30;98910.34;;;46.87;10.33
51239;BME280;38154;47.548;18.828;2022-07-21T11:08:37;98906.69;;;47.12;10.16
51239;BME280;38154;47.548;18.828;2022-07-21T11:11:26;98909.56;;;47.66;10.23
51239;BME280;38154;47.548;18.828;2022-07-21T11:21:53;98908.75;;;46.10;11.13
51239;BME280;38154;47.548;18.828;2022-07-21T11:24:21;98897.72;;;46.10;10.49
51239;BME280;38154;47.548;18.828;2022-07-21T11:27:05;98901.09;;;46.19;10.27
51239;BME280;38154;47.548;18.828;2022-07-21T11:29:33;98903.09;;;46.05;10.63
51239;BME280;38154;47.548;18.828;2022-07-21T11:32:00;98889.53;;;45.79;10.68
51239;BME280;38154;47.548;18.828;2022-07-21T11:37:15;98887.75;;;44.69;11.91
51239;BME280;38154;47.548;18.828;2022-07-21T11:39:42;98884.25;;;44.01;11.97
51239;BME280;38154;47.548;18.828;2022-07-21T11:42:13;98877.72;;;43.14;12.44
51239;BME280;38154;47.548;18.828;2022-07-21T11:44:41;98880.66;;;42.99;13.05
51239;BME280;38154;47.548;18.828;2022-07-21T11:47:11;98870.28;;;42.94;12.66
51239;BME280;38154;47.548;18.828;2022-07-21T11:49:37;98866.69;;;43.00;12.60
51239;BME280;38154;47.548;18.828;2022-07-21T11:52:09;98864.84;;;42.31;13.15
51239;BME280;38154;47.548;18.828;2022-07-21T11:54:54;98860.03;;;42.40;13.84
51239;BME280;38154;47.548;18.828;2022-07-21T11:57:22;98848.09;;;41.91;12.80
51239;BME280;38154;47.548;18.828;2022-07-21T11:59:49;98852.22;;;41.37;14.07
51239;BME280;38154;47.548;18.828;2022-07-21T12:02:28;98855.16;;;41.35;14.17
51239;BME280;38154;47.548;18.828;2022-07-21T12:05:00;98854.12;;;41.37;13.64
51239;BME280;38154;47.548;18.828;2022-07-21T12:07:29;98856.69;;;41.23;13.79
51239;BME280;38154;47.548;18.828;2022-07-21T12:10:01;98850.06;;;41.32;13.99
51239;BME280;38154;47.548;18.828;2022-07-21T12:12:39;98841.78;;;41.47;14.04
51239;BME280;38154;47.548;18.828;2022-07-21T12:15:25;98838.94;;;41.56;13.97
51239;BME280;38154;47.548;18.828;2022-07-21T12:18:06;98842.50;;;41.56;14.21
51239;BME280;38154;47.548;18.828;2022-07-21T12:20:40;98837.41;;;41.10;14.22
51239;BME280;38154;47.548;18.828;2022-07-21T12:23:26;98833.69;;;40.81;14.44
51239;BME280;38154;47.548;18.828;2022-07-21T12:25:53;98833.78;;;41.09;14.84
51239;BME280;38154;47.548;18.828;2022-07-21T12:28:20;98826.87;;;41.28;13.79
51239;BME280;38154;47.548;18.828;2022-07-21T12:30:50;98831.19;;;41.23;14.02
51239;BME280;38154;47.548;18.828;2022-07-21T12:33:28;98830.25;;;41.52;14.08
51239;BME280;38154;47.548;18.828;2022-07-21T12:36:03;98826.47;;;41.53;14.31
51239;BME280;38154;47.548;18.828;2022-07-21T12:38:37;98825.66;;;41.16;13.75
51239;BME280;38154;47.548;18.828;2022-07-21T12:41:04;98818.06;;;40.45;14.44
51239;BME280;38154;47.548;18.828;2022-07-21T12:43:30;98812.00;;;40.05;14.72
51239;BME280;38154;47.548;18.828;2022-07-21T12:45:59;98813.19;;;39.87;15.04
51239;BME280;38154;47.548;18.828;2022-07-21T12:48:30;98815.38;;;39.54;15.75
51239;BME280;38154;47.548;18.828;2022-07-21T12:53:33;98805.47;;;39.53;15.59
51239;BME280;38154;47.548;18.828;2022-07-21T12:55:59;98799.47;;;39.58;15.37
51239;BME280;38154;47.548;18.828;2022-07-21T12:58:25;98804.94;;;39.58;15.36
51239;BME280;38154;47.548;18.828;2022-07-21T13:00:51;98801.50;;;39.79;15.14
51239;BME280;38154;47.548;18.828;2022-07-21T13:03:17;98803.91;;;39.59;15.65
51239;BME280;38154;47.548;18.828;2022-07-21T13:05:43;98798.03;;;39.24;15.73
51239;BME280;38154;47.548;18.828;2022-07-21T13:08:09;98787.78;;;39.26;15.33
51239;BME280;38154;47.548;18.828;2022-07-21T13:10:34;98794.56;;;39.07;16.04
51239;BME280;38154;47.548;18.828;2022-07-21T13:13:00;98792.84;;;39.06;16.23
51239;BME280;38154;47.548;18.828;2022-07-21T13:15:26;98788.66;;;39.18;16.00
51239;BME280;38154;47.548;18.828;2022-07-21T13:17:52;98782.31;;;39.26;15.66
51239;BME280;38154;47.548;18.828;2022-07-21T13:20:18;98770.81;;;39.15;15.72
51239;BME280;38154;47.548;18.828;2022-07-21T13:22:44;98789.97;;;39.07;16.16
51239;BME280;38154;47.548;18.828;2022-07-21T13:25:11;98778.12;;;39.15;15.69
51239;BME280;38154;47.548;18.828;2022-07-21T13:27:37;98777.34;;;38.98;15.78